• Join FlightAware (Why Join?)
  • Login
  • US Flag 
06:12PM EDT


 

Airport Tracker/Info


-or-


 

Live Flight TrackerFlight Track Log ✈ EJM685 ✈ 12-Sep-2013 ✈ KTEB - KBED

Flight Track Log - Related Links

Times and Time Zones

All times are in EDT time to prevent confusion due to time zone crossing. See the EJM685 flight status page for this flight to view local times or setup timezone preferences in your user account.

Time Position Orientation Groundspeed Altitude Reporting Facility
EDT Latitude Longitude Course Direction KTS MPH feet Rate Location/Type
04:16PM 40.8333 -74.0833 255° West 182 209 1,400  Level New York TRACON
04:17PM 40.8167 -74.1667 255° West 220 253 2,800 1,800 Climbing New York TRACON
04:18PM 40.8500 -74.2333 303° West 264 304 4,900 1,680 Climbing New York TRACON
04:19PM 40.9167 -74.2500 349° North 286 329 6,100 540 Climbing New York TRACON
04:20PM 41.0000 -74.2000 24° Northeast 282 325 6,100  Level New York TRACON
04:21PM 41.1139 -74.1564 16° North 290 334 6,100 480 Level Boston Center
04:22PM 41.1669 -74.1000 39° Northeast 278 320 7,500 2,100 Climbing Boston Center
04:23PM 41.1958 -73.9794 72° East 284 327 10,400 2,760 Climbing Boston Center
04:24PM 41.2203 -73.8475 76° East 338 389 13,000 2,760 Climbing Boston Center
04:25PM 41.2511 -73.7072 74° East 378 435 15,800 1,980 Climbing Boston Center
04:26PM 41.2883 -73.5589 71° East 404 465 17,000 540 Climbing Boston Center
04:27PM 41.3208 -73.4075 74° East 420 483 17,000  Level Boston Center
04:28PM 41.3553 -73.2586 73° East 420 483 17,000  Level Boston Center
04:29PM 41.3897 -73.1261 71° East 420 483 17,000  Level Boston Center
04:30PM 41.4550 -72.9747 60° Northeast 420 483 17,000 -540 Level Boston Center
04:31PM 41.5097 -72.8503 60° Northeast 425 489 16,000 -1,020 Descending Boston Center
04:32PM 41.5747 -72.7064 59° Northeast 425 489 15,000 -540 Descending Boston Center
04:33PM 41.6250 -72.5900 60° Northeast 413 475 15,000  Level Boston Center
04:34PM 41.6375 -72.5594 61° Northeast 409 471 15,000 -1,200 Level Boston Center
04:34PM 41.7128 -72.4706 41° Northeast 408 470 13,800 -1,500 Descending Boston Center
04:35PM 41.7314 -72.4483 42° Northeast 404 465 13,400 -1,680 Descending Boston Center
04:36PM 41.8169 -72.3564 39° Northeast 396 456 11,800 -1,200 Descending Boston Center
04:37PM 41.9042 -72.2589 40° Northeast 382 440 11,000 -600 Descending Boston Center
04:37PM 41.9542 -72.2028 40° Northeast 380 437 10,800 -540 Descending Boston Center
04:37PM 41.9686 -72.1861 41° Northeast 382 440 10,600 -600 Descending Boston Center
04:38PM 42.0350 -72.0739 51° Northeast 363 418 10,200 -1,020 Descending Boston Center
04:39PM 42.0972 -71.9897 45° Northeast 311 358 8,600 -1,980 Descending Boston Center
04:41PM 42.1719 -71.9247 33° Northeast 308 354 6,300 -1,920 Descending Boston Center
04:41PM 42.2342 -71.8653 35° Northeast 306 352 5,000 -480 Descending Boston Center
04:43PM 42.3667 -71.7333 36° Northeast 301 346 5,000  Level KA90
04:44PM 42.4333 -71.6500 43° Northeast 289 333 5,000 -240 Level KA90
04:45PM 42.4833 -71.5667 51° Northeast 307 353 4,600 -600 Descending KA90
04:46PM 42.5167 -71.4667 66° East 299 344 3,900 -780 Descending KA90
04:47PM 42.5333 -71.3667 77° East 245 282 3,100 -900 Descending KA90
04:48PM 42.5333 -71.2833 90° East 236 272 2,200 -600 Descending KA90
04:49PM 42.5333 -71.2167 90° East 169 194 1,900 -420 Descending KA90
04:50PM 42.5000 -71.1833 144° Southeast 154 177 1,400 -540 Descending KA90
04:51PM 42.4667 -71.2167 216° Southwest 125 144 900 -540 Descending KA90
04:53PM 42.4667 -71.2833 66° East  Level FlightAware Approximate
05:00PM 42.4699 -71.2890 66° East  Level Estimated
05:01PM 42.4667 -71.2833 66° East  Level FlightAware Approximate
05:02PM 42.4699 -71.2890 66° East  Level Estimated
05:03PM 42.4667 -71.2833 66° East  Level FlightAware Approximate
05:04PM 42.4699 -71.2890 66° East  Level Estimated
05:05PM 42.4667 -71.2833 66° East  Level FlightAware Approximate
05:06PM 42.4699 -71.2890 66° East  Level Estimated